Aérodrome :
LOGIN :

S'inscrire | Disclaimer

   EN    FR    IT 

 










Légende :    VFR   VFR Marginal   IFR   IFR Intensif   IFR Très Intensif
Visi : 
Plafond : 
>= 8 km
>= 3000ft
5 à 8 km
1000 à 3000 ft
1500m à 5 km
500 à 1000 ft
800 à 1500m
200 à 500 ft
< 800m
< 200 ft
Symboles :   Orages  Brouillard  Fortes neiges  Fortes précipitations  Vent > 20 kt
SIGMETs :   Divers  Orages  Givrage  Turbulence  Onde Orograph.  Cendres Volcan.






- Altitude de l'aérodrome : 1548 ft


LKNA - Náměšť Air Base

DERNIER METAR :
  • 041600Z 02003KT 320V080 CAVOK 10/M00 Q1024 NOSIG RMK BLU BLU

METARs EXPIRÉS :
  • 041530Z VRB02KT CAVOK 10/M00 Q1024 NOSIG RMK BLU BLU
  • 041500Z 00000KT 9999 BKN048 10/M01 Q1024 NOSIG RMK BLU BLU
  • 041430Z 08003KT 050V120 9999 BKN047 10/M01 Q1024 NOSIG RMK BLU BLU
  • 041400Z 11006KT 9999 BKN045 10/M01 Q1024 NOSIG RMK BLU BLU
  • 041330Z 19003KT 150V220 9999 BKN045 10/M00 Q1024 NOSIG RMK BLU BLU

TAF TAF LKNA
Valide du 04 à 12h jusqu'au 05 à 12h UTC


041100Z 0412/0512 12006KT CAVOK
TEMPO 0412/0416 9999 BKN035
BECMG 0414/0416 07006KT



MET'MAP, la Météo Aéronautique d'un coup d'oeil ! - Copyright ORBIFLY Décembre 2007 - Disclaimer

ORBIFLY MET'MAP TEAM :

Programmation & Développement : Alexandra Zaïnal
Sur une idée originale de : Baudouin d'Aumeries
Assistance à la programmation : Marc-Olivier Méhu
Soutien technique & logistique : Manuel Goepfert

Contact : metmap@orbifly.com




SOURCES & CREDITS :

   NOAA